createdAt,value
2018-03-26T00:00:38.127Z,32.6
2018-03-26T00:01:29.077Z,32.6
2018-03-26T00:02:18.949Z,32.6
2018-03-26T00:03:08.907Z,32.6
2018-03-26T00:03:58.037Z,32.5
2018-03-26T00:04:48.596Z,32.5
2018-03-26T00:05:38.977Z,32.5
2018-03-26T00:06:28.946Z,32.5
2018-03-26T00:07:19.987Z,32.5
2018-03-26T00:08:08.420Z,32.4
2018-03-26T00:08:59.111Z,32.5
2018-03-26T00:09:49.841Z,32.5
2018-03-26T00:10:39.874Z,32.5
2018-03-26T00:11:29.957Z,32.5
2018-03-26T00:12:19.389Z,32.5
2018-03-26T00:13:08.823Z,32.5
2018-03-26T00:13:59.506Z,32.6
2018-03-26T00:14:50.250Z,32.6
2018-03-26T00:15:39.997Z,32.6
2018-03-26T00:16:28.461Z,32.6
2018-03-26T00:17:19.451Z,32.6
2018-03-26T00:18:08.833Z,32.6
2018-03-26T00:18:59.743Z,32.6
2018-03-26T00:19:47.403Z,32.6
2018-03-26T00:20:37.872Z,32.7
2018-03-26T00:21:28.349Z,32.7
2018-03-26T00:22:19.324Z,32.7
2018-03-26T00:23:08.943Z,32.7
2018-03-26T00:23:59.422Z,32.7
2018-03-26T00:24:49.636Z,32.8
2018-03-26T00:25:39.300Z,32.8
2018-03-26T00:26:30.901Z,32.8
2018-03-26T00:27:19.650Z,32.8
2018-03-26T00:28:09.745Z,32.8
2018-03-26T00:28:59.480Z,32.8
2018-03-26T00:29:48.978Z,32.8
2018-03-26T00:30:39.566Z,32.8
2018-03-26T00:31:29.645Z,32.8
2018-03-26T00:32:19.433Z,32.8
2018-03-26T00:33:09.703Z,32.8
2018-03-26T00:34:01.266Z,32.8
2018-03-26T00:34:49.281Z,32.8
2018-03-26T00:35:39.093Z,32.8
2018-03-26T00:36:29.774Z,32.7
2018-03-26T00:37:20.795Z,32.7
2018-03-26T00:38:10.514Z,32.6
2018-03-26T00:38:58.815Z,32.6
2018-03-26T00:39:50.577Z,32.6
2018-03-26T00:40:40.445Z,32.5
2018-03-26T00:41:30.795Z,32.5
2018-03-26T00:42:22.052Z,32.4
2018-03-26T00:43:11.261Z,32.4
2018-03-26T00:44:00.930Z,32.3
2018-03-26T00:44:50.884Z,32.3
2018-03-26T00:45:40.942Z,32.1
2018-03-26T00:46:32.401Z,32
2018-03-26T00:47:22.069Z,31.9
2018-03-26T00:48:12.939Z,31.7
2018-03-26T00:49:03.004Z,31.6
2018-03-26T00:49:53.411Z,31.4
2018-03-26T00:50:43.476Z,31.3
2018-03-26T00:51:32.765Z,31.1
2018-03-26T00:52:23.059Z,30.9
2018-03-26T00:53:12.885Z,30.9
2018-03-26T00:54:02.847Z,30.8
2018-03-26T00:54:52.467Z,30.6
2018-03-26T00:55:42.971Z,30.5
2018-03-26T00:56:33.348Z,30.4
2018-03-26T00:57:23.079Z,30.3
2018-03-26T00:58:12.876Z,30.2
2018-03-26T00:59:03.774Z,30.1
2018-03-26T00:59:52.453Z,30
2018-03-26T01:00:43.080Z,29.9
2018-03-26T01:01:33.554Z,29.9
2018-03-26T01:02:23.441Z,29.8
2018-03-26T01:03:13.421Z,29.7
2018-03-26T01:04:03.755Z,29.6
2018-03-26T01:04:54.151Z,29.6
2018-03-26T01:05:43.769Z,29.5
2018-03-26T01:06:34.512Z,29.4
2018-03-26T01:07:24.581Z,29.4
2018-03-26T01:08:14.376Z,29.3
2018-03-26T01:09:03.566Z,29.3
2018-03-26T01:09:54.470Z,29.2
2018-03-26T01:10:44.831Z,29.2
2018-03-26T01:11:34.269Z,29.1
2018-03-26T01:12:24.069Z,29.1
2018-03-26T01:13:15.249Z,29
2018-03-26T01:14:05.025Z,28.9
2018-03-26T01:14:54.228Z,28.9
2018-03-26T01:15:44.287Z,28.9
2018-03-26T01:16:34.368Z,28.8
2018-03-26T01:17:24.986Z,28.8
2018-03-26T01:18:12.473Z,28.8
2018-03-26T01:19:03.205Z,28.7
2018-03-26T01:19:52.770Z,28.6
2018-03-26T01:20:43.723Z,28.6
2018-03-26T01:21:33.568Z,28.6
2018-03-26T01:22:24.153Z,28.5
2018-03-26T01:23:13.269Z,28.5
2018-03-26T01:24:02.935Z,28.4
2018-03-26T01:24:54.290Z,28.4
2018-03-26T01:25:43.984Z,28.4
2018-03-26T01:26:34.178Z,28.3
2018-03-26T01:27:23.336Z,28.3
2018-03-26T01:28:15.011Z,28.3
2018-03-26T01:29:04.272Z,28.3
2018-03-26T01:29:54.331Z,28.2
2018-03-26T01:30:43.781Z,28.2
2018-03-26T01:31:34.831Z,28.2
2018-03-26T01:32:23.921Z,28.1
2018-03-26T01:33:13.509Z,28.1
2018-03-26T01:34:04.025Z,28.1
2018-03-26T01:34:55.142Z,28.1
2018-03-26T01:35:44.027Z,28
2018-03-26T01:36:33.830Z,28
2018-03-26T01:37:25.177Z,27.9
2018-03-26T01:38:14.518Z,27.9
2018-03-26T01:39:04.757Z,27.9
2018-03-26T01:39:54.389Z,27.9
2018-03-26T01:42:25.794Z,27.8
2018-03-26T01:43:15.942Z,27.8
2018-03-26T01:44:05.050Z,27.7
2018-03-26T01:44:55.574Z,27.7
2018-03-26T01:45:45.867Z,27.6
2018-03-26T01:46:34.455Z,27.6
2018-03-26T01:47:25.382Z,27.6
2018-03-26T01:48:15.414Z,27.6
2018-03-26T01:49:06.020Z,27.6
2018-03-26T01:49:55.326Z,27.5
2018-03-26T01:50:44.906Z,27.5
2018-03-26T01:51:35.621Z,27.4
2018-03-26T01:52:25.573Z,27.4
2018-03-26T01:53:16.219Z,27.4
2018-03-26T01:54:06.108Z,27.4
2018-03-26T01:54:56.122Z,27.4
2018-03-26T01:55:45.107Z,27.4
2018-03-26T01:56:36.151Z,27.3
2018-03-26T01:57:25.143Z,27.3
2018-03-26T01:58:15.011Z,27.3
2018-03-26T01:59:06.389Z,27.3
2018-03-26T01:59:56.924Z,27.3
2018-03-26T02:00:47.226Z,27.2
2018-03-26T02:01:37.536Z,27.2
2018-03-26T02:02:25.942Z,27.2
2018-03-26T02:03:15.975Z,27.1
2018-03-26T02:04:05.735Z,27.1
2018-03-26T02:04:56.135Z,27.1
2018-03-26T02:05:46.385Z,27.1
2018-03-26T02:06:37.030Z,27.1
2018-03-26T02:07:26.156Z,27.1
2018-03-26T02:08:15.986Z,27
2018-03-26T02:09:06.030Z,27
2018-03-26T02:09:55.925Z,26.9
2018-03-26T02:10:47.256Z,26.9
2018-03-26T02:11:37.128Z,26.9
2018-03-26T02:12:26.253Z,26.9
2018-03-26T02:13:17.160Z,26.9
2018-03-26T02:14:06.090Z,26.9
2018-03-26T02:14:56.398Z,26.9
2018-03-26T02:15:46.829Z,26.8
2018-03-26T02:16:36.602Z,26.8
2018-03-26T02:17:27.643Z,26.8
2018-03-26T02:18:16.113Z,26.8
2018-03-26T02:19:07.545Z,26.8
2018-03-26T02:19:56.853Z,26.8
2018-03-26T02:20:48.330Z,26.7
2018-03-26T02:21:37.754Z,26.7
2018-03-26T02:22:26.319Z,26.7
2018-03-26T02:23:16.714Z,26.7
2018-03-26T02:24:08.096Z,26.6
2018-03-26T02:24:57.534Z,26.6
2018-03-26T02:25:48.037Z,26.6
2018-03-26T02:26:37.247Z,26.6
2018-03-26T02:27:27.142Z,26.6
2018-03-26T02:28:17.540Z,26.6
2018-03-26T02:29:06.882Z,26.5
2018-03-26T02:29:56.754Z,26.5
2018-03-26T02:30:47.016Z,26.5
2018-03-26T02:31:37.175Z,26.5
2018-03-26T02:32:28.428Z,26.4
2018-03-26T02:33:16.917Z,26.4
2018-03-26T02:34:07.552Z,26.4
2018-03-26T02:34:58.499Z,26.4
2018-03-26T02:35:47.444Z,26.4
2018-03-26T02:36:38.626Z,26.4
2018-03-26T02:37:26.690Z,26.3
2018-03-26T02:38:19.221Z,26.3
2018-03-26T02:39:08.526Z,26.3
2018-03-26T02:39:58.722Z,26.3
2018-03-26T02:40:48.818Z,26.3
2018-03-26T02:41:38.368Z,26.3
2018-03-26T02:42:29.801Z,26.3
2018-03-26T02:43:19.070Z,26.2
2018-03-26T02:44:09.900Z,26.1
2018-03-26T02:44:59.589Z,26.1
2018-03-26T02:45:48.830Z,26
2018-03-26T02:46:38.888Z,25.9
2018-03-26T02:47:29.358Z,25.9
2018-03-26T02:48:21.101Z,25.8
2018-03-26T02:49:08.645Z,25.8
2018-03-26T02:49:59.791Z,25.7
2018-03-26T02:50:50.884Z,25.6
2018-03-26T02:51:40.351Z,25.6
2018-03-26T02:52:30.091Z,25.6
2018-03-26T02:53:18.351Z,25.5
2018-03-26T02:54:10.093Z,25.5
2018-03-26T02:55:00.000Z,25.4
2018-03-26T02:55:47.674Z,25.4
2018-03-26T02:56:40.940Z,25.4
2018-03-26T02:57:29.755Z,25.4
2018-03-26T02:58:19.756Z,25.3
2018-03-26T02:59:09.935Z,25.3
2018-03-26T03:00:00.812Z,25.3
2018-03-26T03:00:49.975Z,25.3
2018-03-26T03:01:39.503Z,25.2
2018-03-26T03:02:30.685Z,25.1
2018-03-26T03:03:22.773Z,25.1
2018-03-26T03:04:12.046Z,25.1
2018-03-26T03:05:01.774Z,25.1
2018-03-26T03:05:52.163Z,25
2018-03-26T03:06:41.330Z,25
2018-03-26T03:07:32.240Z,24.9
2018-03-26T03:08:22.577Z,24.9
2018-03-26T03:09:13.179Z,24.9
2018-03-26T03:10:02.380Z,24.9
2018-03-26T03:10:52.494Z,24.8
2018-03-26T03:11:42.192Z,24.8
2018-03-26T03:12:33.127Z,24.8
2018-03-26T03:13:22.961Z,24.8
2018-03-26T03:14:13.231Z,24.7
2018-03-26T03:15:02.472Z,24.6
2018-03-26T03:15:53.647Z,24.6
2018-03-26T03:16:42.899Z,24.6
2018-03-26T03:17:33.467Z,24.6
2018-03-26T03:18:23.790Z,24.5
2018-03-26T03:19:13.046Z,24.5
2018-03-26T03:20:03.277Z,24.4
2018-03-26T03:20:53.387Z,24.4
2018-03-26T03:21:43.404Z,24.3
2018-03-26T03:22:33.804Z,24.3
2018-03-26T03:23:23.541Z,24.3
2018-03-26T03:24:13.856Z,24.2
2018-03-26T03:25:03.994Z,24.2
2018-03-26T03:25:53.512Z,24.1
2018-03-26T03:26:43.247Z,24.1
2018-03-26T03:27:33.014Z,24.1
2018-03-26T03:28:22.526Z,24
2018-03-26T03:29:12.113Z,23.9
2018-03-26T03:30:02.909Z,23.9
2018-03-26T03:30:52.321Z,23.9
2018-03-26T03:31:43.052Z,23.8
2018-03-26T03:32:31.016Z,23.8
2018-03-26T03:33:23.034Z,23.7
2018-03-26T03:34:11.571Z,23.7
2018-03-26T03:35:02.753Z,23.6
2018-03-26T03:35:53.732Z,23.8
2018-03-26T03:36:41.828Z,24.3
2018-03-26T03:37:31.768Z,24.7
2018-03-26T03:38:22.336Z,25.1
2018-03-26T03:39:12.153Z,25.8
2018-03-26T03:40:03.071Z,25.7
2018-03-26T03:40:52.793Z,25.6
2018-03-26T03:41:44.634Z,25.5
2018-03-26T03:42:33.632Z,25.4
2018-03-26T03:43:23.574Z,25.4
2018-03-26T03:44:13.027Z,25.8
2018-03-26T03:45:03.068Z,26
2018-03-26T03:45:52.675Z,26.3
2018-03-26T03:46:42.686Z,26.6
2018-03-26T03:47:33.719Z,26.8
2018-03-26T03:48:23.385Z,26.9
2018-03-26T03:49:12.566Z,27.1
2018-03-26T03:50:03.792Z,27.3
2018-03-26T03:50:55.017Z,27.4
2018-03-26T03:51:43.910Z,27.5
2018-03-26T03:52:32.870Z,27.6
2018-03-26T03:53:24.618Z,27.8
2018-03-26T03:54:14.167Z,27.9
2018-03-26T03:55:03.457Z,27.9
2018-03-26T03:55:54.401Z,28
2018-03-26T03:56:43.657Z,28.1
2018-03-26T03:57:34.390Z,28.2
2018-03-26T03:58:23.905Z,28.3
2018-03-26T03:59:13.892Z,28.4
2018-03-26T04:00:04.416Z,28.4
2018-03-26T04:00:54.358Z,28.5
2018-03-26T04:01:43.835Z,28.6
2018-03-26T04:02:34.432Z,28.6
2018-03-26T04:03:25.048Z,28.8
2018-03-26T04:04:14.646Z,28.8
2018-03-26T04:05:04.694Z,28.8
2018-03-26T04:05:54.861Z,28.9
2018-03-26T04:06:45.176Z,28.9
2018-03-26T04:07:34.471Z,28.9
2018-03-26T04:08:25.521Z,28.8
2018-03-26T04:09:15.097Z,28.7
2018-03-26T04:10:05.952Z,28.6
2018-03-26T04:10:53.698Z,28.5
2018-03-26T04:11:43.485Z,28.4
2018-03-26T04:12:35.936Z,28.2
2018-03-26T04:13:25.675Z,28.1
2018-03-26T04:14:14.683Z,27.9
2018-03-26T04:15:54.788Z,27.7
2018-03-26T04:16:46.191Z,27.6
2018-03-26T04:17:35.861Z,27.5
2018-03-26T04:18:25.886Z,27.4
2018-03-26T04:19:14.683Z,27.5
2018-03-26T04:20:05.438Z,27.6
2018-03-26T04:20:56.187Z,27.8
2018-03-26T04:21:46.245Z,27.9
2018-03-26T04:22:35.314Z,28.1
2018-03-26T04:23:24.888Z,28.2
2018-03-26T04:24:16.706Z,28.3
2018-03-26T04:25:06.269Z,28.4
2018-03-26T04:25:56.158Z,28.5
2018-03-26T04:26:46.383Z,28.6
2018-03-26T04:27:35.568Z,28.6
2018-03-26T04:28:26.286Z,28.7
2018-03-26T04:29:15.074Z,28.8
2018-03-26T04:30:05.926Z,28.8
2018-03-26T04:30:57.336Z,28.9
2018-03-26T04:31:47.473Z,29
2018-03-26T04:32:36.881Z,29.1
2018-03-26T04:33:27.845Z,29.1
2018-03-26T04:34:16.783Z,29.1
2018-03-26T04:35:06.927Z,29.2
2018-03-26T04:35:56.016Z,29.2
2018-03-26T04:36:47.389Z,29.1
2018-03-26T04:37:37.334Z,29
2018-03-26T04:38:27.280Z,28.9
2018-03-26T04:39:16.468Z,28.8
2018-03-26T04:40:06.213Z,28.6
2018-03-26T04:40:58.342Z,28.5
2018-03-26T04:41:47.116Z,28.4
2018-03-26T04:42:37.171Z,28.3
2018-03-26T04:43:27.018Z,28.1
2018-03-26T04:44:16.771Z,28
2018-03-26T04:45:06.583Z,27.9
2018-03-26T04:46:46.559Z,27.8
2018-03-26T04:47:38.600Z,27.8
2018-03-26T04:48:27.048Z,27.9
2018-03-26T04:49:17.835Z,28
2018-03-26T04:50:07.910Z,28.2
2018-03-26T04:50:57.038Z,28.3
2018-03-26T04:51:47.689Z,28.4
2018-03-26T04:52:37.948Z,28.6
2018-03-26T04:53:27.562Z,28.6
2018-03-26T04:54:17.780Z,28.7
2018-03-26T04:55:07.330Z,28.8
2018-03-26T04:55:59.329Z,28.9
2018-03-26T04:56:48.032Z,28.9
2018-03-26T04:57:38.090Z,29
2018-03-26T04:58:28.612Z,29.1
2018-03-26T04:59:18.345Z,29.2
2018-03-26T05:00:08.956Z,29.3
2018-03-26T05:00:57.620Z,29.3
2018-03-26T05:01:48.564Z,29.3
2018-03-26T05:02:38.943Z,29.3
2018-03-26T05:03:28.740Z,29.3
2018-03-26T05:04:18.707Z,29.3
2018-03-26T05:05:08.702Z,29.1
2018-03-26T05:05:58.052Z,29
2018-03-26T05:06:48.807Z,28.9
2018-03-26T05:07:38.844Z,28.8
2018-03-26T05:08:28.518Z,28.6
2018-03-26T05:09:19.551Z,28.5
2018-03-26T05:10:09.344Z,28.4
2018-03-26T05:10:58.109Z,28.2
2018-03-26T05:11:48.954Z,28.1
2018-03-26T05:12:39.156Z,28.1
2018-03-26T05:13:30.138Z,28
2018-03-26T05:14:19.992Z,27.9
2018-03-26T05:15:10.091Z,27.9
2018-03-26T05:16:00.419Z,28.1
2018-03-26T05:16:49.647Z,28.3
2018-03-26T20:17:55.107Z,28
2018-03-26T20:18:44.538Z,27.9
2018-03-26T20:19:34.722Z,27.9
2018-03-26T20:20:24.359Z,28.1
2018-03-26T20:21:13.533Z,28.3
2018-03-26T20:22:04.729Z,28.4
2018-03-26T20:22:54.507Z,28.6
2018-03-26T20:23:44.555Z,28.8
2018-03-26T20:24:34.965Z,28.9
2018-03-26T20:25:24.913Z,29.1
2018-03-26T20:26:15.046Z,29.2
2018-03-26T20:27:05.138Z,29.3
2018-03-26T20:27:55.186Z,29.4
2018-03-26T20:28:45.496Z,29.6
2018-03-26T20:29:35.233Z,29.6
2018-03-26T20:30:25.569Z,29.7
2018-03-26T20:31:13.601Z,29.8
2018-03-26T20:32:03.547Z,29.8
2018-03-26T20:32:52.726Z,29.8
2018-03-26T20:33:44.165Z,29.6
2018-03-26T20:34:33.530Z,29.6
2018-03-26T20:35:23.334Z,29.5
2018-03-26T20:36:13.225Z,29.4
2018-03-26T20:37:03.730Z,29.3
2018-03-26T20:37:54.033Z,29.1
2018-03-26T20:38:43.798Z,29
2018-03-26T20:39:33.894Z,28.9
2018-03-26T20:40:25.521Z,28.8
2018-03-26T20:41:16.240Z,28.6
2018-03-26T20:42:06.502Z,28.5
2018-03-26T20:42:56.191Z,28.4
2018-03-26T20:43:46.540Z,28.3
2018-03-26T20:44:36.305Z,28.3
2018-03-26T20:45:26.335Z,28.1
2018-03-26T20:46:16.515Z,28.1
2018-03-26T20:47:05.976Z,28
2018-03-26T20:47:55.934Z,28
2018-03-26T20:48:46.357Z,28
2018-03-26T20:49:36.543Z,28.2
2018-03-26T20:50:26.145Z,28.4
2018-03-26T20:51:16.223Z,28.6
2018-03-26T20:52:06.921Z,28.8
2018-03-26T20:52:56.908Z,28.9
2018-03-26T20:53:46.433Z,29.1
2018-03-26T20:54:37.223Z,29.1
2018-03-26T20:55:26.772Z,29.3
2018-03-26T20:56:17.411Z,29.4
2018-03-26T20:57:07.099Z,29.5
2018-03-26T20:57:57.226Z,29.6
2018-03-26T20:58:47.279Z,29.7
2018-03-26T20:59:37.580Z,29.8
2018-03-26T21:00:27.384Z,29.8
2018-03-26T21:01:17.172Z,29.8
2018-03-26T21:02:07.782Z,29.8
2018-03-26T21:02:57.554Z,29.7
2018-03-26T21:03:47.568Z,29.6
2018-03-26T21:04:37.659Z,29.5
2018-03-26T21:05:27.987Z,29.4
2018-03-26T21:06:18.433Z,29.3
2018-03-26T21:07:07.874Z,29.1
2018-03-26T21:07:57.478Z,29
2018-03-26T21:08:48.057Z,28.9
2018-03-26T21:09:38.029Z,28.8
2018-03-26T21:10:27.246Z,28.6
2018-03-26T21:11:17.811Z,28.5
2018-03-26T21:12:07.946Z,28.4
2018-03-26T21:12:57.750Z,28.3
2018-03-26T21:13:48.291Z,28.3
2018-03-26T21:14:38.409Z,28.2
2018-03-26T21:15:27.924Z,28.1
2018-03-26T21:16:17.908Z,28
2018-03-26T21:17:08.271Z,27.9
2018-03-26T21:17:58.331Z,28
2018-03-26T21:18:47.331Z,28.1
2018-03-26T21:19:38.526Z,28.4
2018-03-26T21:20:28.745Z,28.6
2018-03-26T21:21:18.808Z,28.8
2018-03-26T21:22:08.346Z,29
2018-03-26T21:22:58.329Z,29.1
2018-03-26T21:23:47.882Z,29.3
2018-03-26T21:24:38.946Z,29.4
2018-03-26T21:25:28.559Z,29.5
2018-03-26T21:26:18.378Z,29.6
2018-03-26T21:27:08.093Z,29.8
2018-03-26T21:27:59.227Z,29.8
2018-03-26T21:28:48.800Z,29.9
2018-03-26T21:29:39.146Z,29.9
2018-03-26T21:30:29.268Z,29.9
2018-03-26T21:31:19.216Z,29.8
2018-03-26T21:32:10.408Z,29.7
2018-03-26T21:32:59.618Z,29.6
2018-03-26T21:33:49.682Z,29.4
2018-03-26T21:34:39.501Z,29.3
2018-03-26T21:35:28.969Z,29.1
2018-03-26T21:36:19.272Z,29
2018-03-26T21:37:09.893Z,28.9
2018-03-26T21:37:59.989Z,28.8
2018-03-26T21:38:49.493Z,28.6
2018-03-26T21:39:40.047Z,28.5
2018-03-26T21:40:28.896Z,28.4
2018-03-26T21:41:18.399Z,28.3
2018-03-26T21:42:08.732Z,28.2
2018-03-26T21:42:58.529Z,28.3
2018-03-26T21:43:46.783Z,28.1
2018-03-26T21:44:39.130Z,28
2018-03-26T21:45:28.303Z,27.9
2018-03-26T21:46:17.649Z,27.9
2018-03-26T21:47:08.355Z,28.1
2018-03-26T21:47:58.530Z,28.3
2018-03-26T21:48:48.287Z,28.6
2018-03-26T21:49:38.912Z,28.8
2018-03-26T21:50:28.547Z,28.9
2018-03-26T21:51:19.312Z,29.1
2018-03-26T21:52:09.585Z,29.2
2018-03-26T21:52:59.356Z,29.4
2018-03-26T21:53:48.336Z,29.4
2018-03-26T21:54:39.463Z,29.6
2018-03-26T21:55:29.419Z,29.7
2018-03-26T21:56:18.494Z,29.8
2018-03-26T21:57:08.624Z,29.9
2018-03-26T21:57:59.249Z,29.9
2018-03-26T21:58:48.524Z,29.8
2018-03-26T21:59:39.381Z,29.8
2018-03-26T22:00:29.666Z,29.6
2018-03-26T22:01:19.034Z,29.5
2018-03-26T22:02:09.778Z,29.4
2018-03-26T22:03:00.341Z,29.3
2018-03-26T22:03:48.512Z,29.1
2018-03-26T22:04:39.591Z,28.9
2018-03-26T22:05:30.139Z,28.8
2018-03-26T22:06:19.975Z,28.7
2018-03-26T22:07:08.883Z,28.6
2018-03-26T22:08:01.226Z,28.5
2018-03-26T22:08:50.935Z,28.3
2018-03-26T22:09:40.729Z,28.3
2018-03-26T22:10:29.751Z,28.4
2018-03-26T22:11:20.416Z,28.2
2018-03-26T22:12:10.009Z,28.1
2018-03-26T22:12:59.953Z,28
2018-03-26T22:13:50.795Z,28
2018-03-26T22:14:40.538Z,28
2018-03-26T22:15:30.995Z,28.1
2018-03-26T22:16:21.375Z,28.4
2018-03-26T22:17:10.557Z,28.6
2018-03-26T22:18:01.157Z,28.8
2018-03-26T22:18:50.848Z,28.9
2018-03-26T22:19:41.528Z,29.1
2018-03-26T22:20:30.929Z,29.3
2018-03-26T22:21:22.065Z,29.4
2018-03-26T22:22:11.585Z,29.5
2018-03-26T22:23:00.024Z,29.6
2018-03-26T22:23:50.061Z,29.7
2018-03-26T22:24:41.657Z,29.8
2018-03-26T22:25:31.244Z,29.9
2018-03-26T22:26:22.177Z,29.9
2018-03-26T22:27:12.077Z,29.8
2018-03-26T22:28:00.487Z,29.8
2018-03-26T22:28:51.416Z,29.6
2018-03-26T22:29:40.895Z,29.5
2018-03-26T22:30:32.293Z,29.4
2018-03-26T22:31:21.360Z,29.2
2018-03-26T22:32:12.421Z,29.1
2018-03-26T22:33:01.286Z,28.9
2018-03-26T22:33:52.042Z,28.8
2018-03-26T22:34:41.499Z,28.7
2018-03-26T22:35:31.737Z,28.6
2018-03-26T22:36:21.819Z,28.4
2018-03-26T22:37:11.698Z,28.4
2018-03-26T22:38:03.029Z,28.3
2018-03-26T22:38:51.518Z,28.6
2018-03-26T22:39:42.066Z,28.2
2018-03-26T22:40:32.001Z,28.1
2018-03-26T22:41:22.479Z,28.1
2018-03-26T22:42:12.623Z,27.9
2018-03-26T22:43:02.358Z,28
2018-03-26T22:43:53.284Z,28.2
2018-03-26T22:44:43.364Z,28.4
2018-03-26T22:45:32.161Z,28.6
2018-03-26T22:46:22.810Z,28.8
2018-03-26T22:47:11.925Z,29
2018-03-26T22:48:02.459Z,29.1
2018-03-26T22:48:52.915Z,29.3
2018-03-26T22:49:43.193Z,29.4
2018-03-26T22:50:33.033Z,29.5
2018-03-26T22:51:23.355Z,29.6
2018-03-26T22:52:12.880Z,29.8
2018-03-26T22:53:03.507Z,29.8
2018-03-26T22:53:53.410Z,29.9
2018-03-26T22:54:43.678Z,29.9
2018-03-26T22:55:33.825Z,29.8
2018-03-26T22:56:23.417Z,29.7
2018-03-26T22:57:13.837Z,29.6
2018-03-26T22:58:03.165Z,29.4
2018-03-26T22:58:52.700Z,29.3
2018-03-26T22:59:44.217Z,29.2
2018-03-26T23:00:34.364Z,29.1
2018-03-26T23:01:23.482Z,28.9
2018-03-26T23:02:13.924Z,28.8
2018-03-26T23:03:03.167Z,28.6
2018-03-26T23:03:53.388Z,28.5
2018-03-26T23:04:45.562Z,28.4
2018-03-26T23:05:33.832Z,28.3
2018-03-26T23:06:24.749Z,28.3
2018-03-26T23:07:14.528Z,28.4
2018-03-26T23:08:03.053Z,28.1
2018-03-26T23:08:53.664Z,28.1
2018-03-26T23:09:43.526Z,28
2018-03-26T23:10:34.730Z,27.9
2018-03-26T23:11:24.412Z,28
2018-03-26T23:12:13.702Z,28.2
2018-03-26T23:13:04.409Z,28.4
2018-03-26T23:13:54.116Z,28.6
2018-03-26T23:14:44.558Z,28.8
2018-03-26T23:15:36.194Z,28.9
2018-03-26T23:16:24.317Z,29.1
2018-03-26T23:17:14.687Z,29.3
2018-03-26T23:18:04.690Z,29.4
2018-03-26T23:18:55.734Z,29.5
2018-03-26T23:19:44.151Z,29.6
2018-03-26T23:20:36.079Z,29.8
2018-03-26T23:21:24.724Z,29.8
2018-03-26T23:22:14.799Z,29.9
2018-03-26T23:23:05.875Z,29.9
2018-03-26T23:23:55.969Z,29.8
2018-03-26T23:24:44.693Z,29.7
2018-03-26T23:25:34.326Z,29.6
2018-03-26T23:26:25.401Z,29.4
2018-03-26T23:27:15.727Z,29.3
2018-03-26T23:28:05.049Z,29.2
2018-03-26T23:28:55.079Z,29.1
2018-03-26T23:29:46.486Z,28.9
2018-03-26T23:30:35.573Z,28.8
2018-03-26T23:31:25.202Z,28.6
2018-03-26T23:32:15.673Z,28.6
2018-03-26T23:33:06.998Z,28.4
2018-03-26T23:33:54.581Z,28.3
2018-03-26T23:34:45.732Z,28.3
2018-03-26T23:35:36.679Z,28.4
2018-03-26T23:36:27.119Z,28.1
2018-03-26T23:37:16.155Z,28.1
2018-03-26T23:38:05.273Z,28
2018-03-26T23:38:54.814Z,27.9
2018-03-26T23:39:47.253Z,28
2018-03-26T23:40:36.206Z,28.2
2018-03-26T23:41:27.085Z,28.4
2018-03-26T23:42:16.325Z,28.6
2018-03-26T23:43:06.947Z,28.8
2018-03-26T23:43:56.110Z,29
2018-03-26T23:44:46.333Z,29.1
2018-03-26T23:45:36.925Z,29.3
2018-03-26T23:46:26.025Z,29.4
2018-03-26T23:47:16.235Z,29.5
2018-03-26T23:48:06.938Z,29.6
2018-03-26T23:48:56.873Z,29.8
2018-03-26T23:49:47.700Z,29.8
2018-03-26T23:50:37.251Z,29.9
2018-03-26T23:51:27.915Z,29.9
2018-03-26T23:52:16.946Z,29.8
2018-03-26T23:53:06.567Z,29.7
2018-03-26T23:53:57.840Z,29.6
2018-03-26T23:54:47.246Z,29.4
2018-03-26T23:55:37.520Z,29.3
2018-03-26T23:56:27.970Z,29.2
2018-03-26T23:57:18.642Z,29.1
2018-03-26T23:58:07.295Z,28.9
2018-03-26T23:58:57.834Z,28.8
2018-03-26T23:59:47.979Z,28.6
